EGNX/EMA METAR and TAF weather

Enter ICAO airport designator
Station Type Date Time Source
EGNX METAR 2024/05/29 00:20 UTC NOAA

EGNX 290020Z 25012KT 9999 FEW018 14/11 Q1006


Station Type Date Time Source
EGNX Decoded METAR 2024/05/29 00:20 UTC NOAA

East Midlands, United Kingdom (EGNX) 52-50N 001-20W
May 28, 2024 - 08:20 PM EDT / 2024.05.29 0020 UTC
Wind: from the WSW (250 degrees) at 14 MPH (12 KT):0
Visibility: greater than 7 mile(s):0
Sky conditions: mostly clear
Temperature: 57 F (14 C)
Dew Point: 51 F (11 C)
Relative Humidity: 82%
Pressure (altimeter): 29.71 in. Hg (1006 hPa)
ob: EGNX 290020Z 25012KT 9999 FEW018 14/11 Q1006
cycle: 0

Station Type Date Time Source
EGNX TAF 2024/05/28 20:30 UTC NOAA